Latest Coastal Weather Observations for Lord Howe Island

IDN60701

Issued at 1:51 am EST Sunday 26 June 2016 (issued every 10 minutes, with the page automatically refreshed every 10 minutes)

About coastal observations | Map of coastal stations | Coastal observations for NSW | Marine services | Other Formats
Station Details ID: 200839 Name: LORD HOWE ISLAND AERO Lat: -31.54 Lon: 159.08 Height: 5.0 m
Data from the previous 72 hours. | See also: Recent months at Lord Howe Island
Date/Time
EST
Temp
°C
Wind Pressure Rain since
9am
mm
Weather Cloud Vis
km
Sea
Height
m
Swell
Dir  Spd
kts
Gust
kts
hPa Trend Height
m
Period
s
Dir
26/01:44am 15.6 SW 15 25 1013.0 - 7.4 - Partly cloudy 10 - - - -
26/01:30am 14.0 SSW 11 15 1013.1 - 7.4 - Partly cloudy 9 - - - -
26/01:12am 15.7 SW 15 29 1013.0 - 7.4 - Partly cloudy 10 - - - -
26/01:00am 15.7 SW 16 24 1013.0 - 7.4 - Partly cloudy 10 - - - -
26/12:30am 15.2 SW 13 18 1013.1 - 7.4 - Partly cloudy 10 - - - -
26/12:24am 14.6 SW 12 19 1013.2 - 7.4 - Partly cloudy 10 - - - -
26/12:05am 14.1 SW 16 27 1013.4 - 7.2 - Partly cloudy 6 - - - -
26/12:03am 14.8 SW 15 27 1013.2 - 7.0 - Partly cloudy 10 - - - -
26/12:00am 15.6 SW 12 21 1013.2 - 7.0 - Partly cloudy 10 - - - -
 
Date/Time
EST
Temp
°C
Wind Pressure Rain since
9am
mm
Weather Cloud Vis
km
Sea
Height
m
Swell
Dir  Spd
kts
Gust
kts
hPa Trend Height
m
Period
s
Dir
25/11:35pm 15.7 WSW 17 27 1012.9 - 7.0 - Partly cloudy 10 - - - -
25/11:30pm 16.0 WSW 16 22 1012.8 - 7.0 - Partly cloudy 10 - - - -
25/11:00pm 15.8 SW 16 24 1013.0 - 7.0 - Partly cloudy 10 - - - -
25/10:30pm 14.6 SW 12 17 1013.1 - 7.0 - Partly cloudy 10 - - - -
25/10:19pm 14.0 SSW 9 14 1013.2 - 7.0 - Partly cloudy 10 - - - -
25/10:00pm 13.2 SW 16 22 1013.3 - 6.6 - Partly cloudy 2 - - - -
25/09:59pm 13.2 SW 16 22 1013.3 - 6.6 - Partly cloudy 2 - - - -
25/09:56pm 14.4 WSW 31 45 1012.4 - 4.8 - Partly cloudy 5 - - - -
25/09:55pm 14.4 WSW 17 34 1012.8 - 4.4 - Partly cloudy 9 - - - -
25/09:30pm 14.7 WSW 17 22 1012.7 - 3.8 - Partly cloudy 10 - - - -
25/09:00pm 15.0 SW 11 17 1012.4 - 3.8 - Partly cloudy 10 - - - -
25/08:30pm 14.4 SW 14 23 1012.5 - 3.8 - Cloudy 10 - - - -
25/08:27pm 14.6 WSW 16 26 1012.5 - 3.8 - Partly cloudy 10 - - - -
25/08:00pm 15.9 SW 15 23 1012.0 - 3.8 - Partly cloudy 10 - - - -
25/07:30pm 15.8 SW 15 22 1012.0 - 3.8 - Partly cloudy 10 - - - -
25/07:00pm 15.7 SW 16 22 1011.7 - 3.8 - Partly cloudy 10 - - - -
25/06:30pm 15.4 SW 16 24 1011.4 - 3.8 - - 10 - - - -
25/06:04pm 15.6 SW 19 29 1010.9 - 3.8 - Partly cloudy 10 - - - -
25/06:00pm 15.7 SW 17 23 1010.9 - 3.8 - Partly cloudy 10 - - - -
25/05:39pm 15.7 SW 17 28 1010.6 - 3.8 - Partly cloudy 10 - - - -
25/05:30pm 15.5 SW 17 25 1010.5 - 3.8 - Mostly clear 10 - - - -
25/05:00pm 14.2 SW 10 16 1010.3 - 3.8 - - 10 - - - -
25/04:31pm 13.4 SW 15 27 1010.3 - 3.8 - Partly cloudy 10 - - - -
25/04:30pm 13.4 SW 16 27 1010.2 - 3.8 - Partly cloudy 10 - - - -
25/04:08pm 14.1 SW 15 29 1010.2 - 2.8 - Partly cloudy 4 - - - -
25/04:00pm 14.7 SW 14 20 1009.6 - 1.6 - Partly cloudy 10 - - - -
25/03:50pm 14.4 SW 14 20 1009.5 - 1.6 - Partly cloudy 10 - - - -
25/03:31pm 13.3 SW 17 26 1009.5 - 1.4 - Partly cloudy 5 - - - -
25/03:30pm 13.7 SW 16 26 1009.5 - 1.4 - Partly cloudy 9 - - - -
25/03:00pm 13.0 SW 21 33 1009.5 - 1.2 - Partly cloudy 9 - - - -
25/02:42pm 14.9 SW 15 30 1008.8 - 1.0 - Partly cloudy 10 - - - -
25/02:30pm 14.7 SW 14 19 1008.8 R 1.0 Fine Partly cloudy 15 - - - -
25/02:06pm 14.2 SW 16 26 1008.9 - 0.8 - Partly cloudy 10 - - - -
25/02:00pm 14.2 SW 16 27 1008.8 - 0.8 - Partly cloudy 10 - - - -
25/01:50pm 13.9 SW 16 26 1008.7 - 0.8 - Partly cloudy 6 - - - -
25/01:43pm 14.8 SW 17 24 1008.5 - 0.6 - Partly cloudy 9 - - - -
25/01:30pm 13.8 SW 18 36 1008.5 - 0.6 - Partly cloudy 6 - - - -
25/01:27pm 13.4 SW 19 36 1008.5 - 0.6 - Partly cloudy 6 - - - -
25/01:17pm 15.6 SW 17 27 1008.0 - 0.6 - Partly cloudy 10 - - - -
25/01:00pm 15.4 SW 18 25 1008.1 - 0.6 - Partly cloudy 10 - - - -
25/12:56pm 15.2 SW 18 25 1008.1 - 0.6 - Partly cloudy 10 - - - -
25/12:35pm 14.3 SW 25 37 1008.2 - 0.4 - Partly cloudy 6 - - - -
25/12:34pm 14.4 SW 25 37 1008.2 - 0.4 - Partly cloudy 7 - - - -
25/12:30pm 14.4 WSW 25 37 1008.1 - 0.4 - Partly cloudy 8 - - - -
25/12:15pm 14.2 WSW 27 39 1007.8 - 0.4 - Partly cloudy 6 - - - -
25/12:07pm 16.5 WSW 22 35 1007.5 - 0.2 - Partly cloudy 10 - - - -
25/12:03pm 16.7 WSW 19 31 1007.5 - 0.2 - Partly cloudy 10 - - - -
25/12:00pm 16.4 SW 17 23 1007.7 - 0.2 - Partly cloudy 10 - - - -
25/11:49am 14.3 WSW 27 39 1007.8 - 0.2 - Partly cloudy 5 - - - -
25/11:30am 16.9 SW 22 33 1007.8 - 0.2 - Mostly cloudy 10 - - - -
25/11:10am 16.3 WSW 27 37 1007.8 - 0.2 - Partly cloudy 10 - - - -
25/11:00am 16.8 WSW 29 35 1007.7 - 0.2 - Partly cloudy 10 - - - -
25/10:30am 17.6 WSW 28 38 1007.2 - 0.0 - Partly cloudy 10 - - - -
25/10:18am 17.4 WSW 30 40 1007.3 - 0.0 - Partly cloudy 10 - - - -
25/10:00am 17.2 WSW 26 35 1007.2 - 0.0 - Partly cloudy 10 - - - -
25/09:30am 16.8 WSW 25 35 1007.3 - 0.0 - Partly cloudy 10 - - - -
25/09:01am 15.4 WSW 27 37 1007.0 - 0.0 - Partly cloudy 8 - - - -
25/09:00am 15.3 SW 28 37 1007.0 - 0.0 - Partly cloudy 7 - - - -
25/08:30am 16.6 WSW 26 37 1006.6 R 11.4 Fine Partly cloudy 20 - - - -
25/08:24am 16.1 WSW 27 37 1006.6 - 11.4 - Partly cloudy 10 - - - -
25/08:00am 15.2 WSW 26 34 1006.5 - 11.4 - Partly cloudy 10 - - - -
25/07:48am 15.2 WSW 28 38 1006.3 - 11.4 - Partly cloudy 10 - - - -
25/07:30am 15.6 WSW 27 36 1006.1 - 11.4 - Partly cloudy 10 - - - -
25/07:00am 14.9 WSW 29 39 1005.9 - 11.4 - Partly cloudy 10 - - - -
25/06:45am 15.1 WSW 28 35 1005.6 - 11.4 - Partly cloudy 10 - - - -
25/06:35am 14.6 WSW 21 33 1005.6 - 11.4 - Partly cloudy 6 - - - -
25/06:30am 13.4 WSW 23 30 1005.8 - 11.4 - Partly cloudy 5 - - - -
25/06:27am 13.3 WSW 24 30 1005.8 - 11.4 - Partly cloudy 5 - - - -
25/06:18am 14.0 WSW 22 31 1005.6 - 11.2 - Partly cloudy 10 - - - -
25/06:15am 13.7 WSW 21 31 1005.6 - 11.2 - Partly cloudy 10 - - - -
25/06:06am 13.1 SW 21 29 1005.6 - 11.2 - Partly cloudy 5 - - - -
25/06:00am 13.0 WSW 32 47 1005.6 - 11.0 - Partly cloudy 2 - - - -
25/05:51am 13.3 WSW 34 47 1005.2 - 9.6 - Partly cloudy 6 - - - -
25/05:30am 15.2 WSW 32 40 1004.9 R 9.2 Fine Partly cloudy 20 - - - -
25/05:09am 14.6 WSW 31 41 1004.6 - 9.2 - Partly cloudy 10 - - - -
25/05:00am 14.5 WSW 31 39 1004.4 - 9.2 - Partly cloudy 10 - - - -
25/04:42am 14.0 W 33 45 1004.5 - 9.2 - Partly cloudy 10 - - - -
25/04:30am 13.4 W 33 43 1004.5 - 9.2 - Partly cloudy 3 - - - -
25/04:16am 11.8 W 39 55 1004.8 - 5.6 - Partly cloudy 5 - - - -
25/04:12am 13.0 W 37 49 1004.7 - 5.4 - Partly cloudy 9 - - - -
25/04:09am 13.2 W 35 42 1004.9 - 5.4 - Partly cloudy 8 - - - -
25/04:01am 12.9 WSW 25 35 1004.4 - 5.4 - Partly cloudy 3 - - - -
25/04:00am 12.7 WSW 26 35 1004.5 - 5.4 - Partly cloudy 3 - - - -
25/03:53am 12.4 WSW 39 50 1004.4 - 5.0 - Partly cloudy 5 - - - -
25/03:51am 13.3 WSW 43 50 1004.0 - 4.8 - Partly cloudy 10 - - - -
25/03:32am 15.6 WSW 32 42 1003.9 - 4.8 - Partly cloudy 10 - - - -
25/03:30am 15.5 WSW 33 42 1003.9 - 4.8 - Partly cloudy 10 - - - -
25/03:14am 15.5 W 37 42 1003.9 - 4.8 - Partly cloudy 10 - - - -
25/03:00am 15.1 WSW 25 36 1003.9 - 4.8 - Partly cloudy 10 - - - -
25/02:46am 14.1 WSW 26 37 1004.1 - 4.8 - Partly cloudy 9 - - - -
25/02:41am 14.5 W 26 36 1004.0 - 4.6 - Partly cloudy 10 - - - -
25/02:30am 13.5 W 29 35 1003.9 - 4.6 - Cloudy 4 - - - -
25/02:26am 14.1 W 29 35 1004.1 - 4.4 - Partly cloudy 6 - - - -
25/02:00am 15.9 W 31 38 1003.7 - 4.4 - Partly cloudy 10 - - - -
25/01:54am 16.0 WSW 28 38 1003.8 - 4.4 - Partly cloudy 10 - - - -
25/01:30am 15.4 WSW 29 37 1004.2 - 4.4 - Partly cloudy 10 - - - -
25/01:16am 15.6 WSW 31 47 1004.1 - 4.4 - Partly cloudy 10 - - - -
25/01:13am 15.8 WSW 29 37 1004.1 - 4.0 - Partly cloudy 10 - - - -
25/01:00am 14.8 WSW 31 45 1004.3 - 4.0 - Partly cloudy 6 - - - -
25/12:58am 14.4 WSW 32 45 1004.4 - 4.0 - Partly cloudy 6 - - - -
25/12:55am 14.3 WSW 34 45 1004.0 - 4.0 - Partly cloudy 9 - - - -
25/12:53am 14.9 WSW 37 45 1003.9 - 4.0 - Partly cloudy 10 - - - -
25/12:52am 16.0 WSW 26 44 1004.1 - 4.0 - Partly cloudy 10 - - - -
25/12:30am 16.7 WSW 21 32 1004.0 - 4.0 - Partly cloudy 10 - - - -
25/12:09am 16.7 SW 22 32 1004.0 - 4.0 - Partly cloudy 10 - - - -
25/12:00am 16.8 SW 24 32 1003.9 - 4.0 - Partly cloudy 10 - - - -
 
Date/Time
EST
Temp
°C
Wind Pressure Rain since
9am
mm
Weather Cloud Vis
km
Sea
Height
m
Swell
Dir  Spd
kts
Gust
kts
hPa Trend Height
m
Period
s
Dir
24/11:30pm 18.3 WSW 26 36 1003.8 - 4.0 - Cloudy 10 - - - -
24/11:01pm 17.5 WSW 33 43 1004.2 - 4.0 - Partly cloudy 10 - - - -
24/11:00pm 17.5 WSW 34 43 1004.2 - 4.0 - Partly cloudy 10 - - - -
24/10:58pm 17.7 WSW 33 43 1004.1 - 4.0 - Partly cloudy 10 - - - -
24/10:30pm 17.1 WSW 23 35 1004.4 - 4.0 - Partly cloudy 10 - - - -
24/10:03pm 16.9 WSW 23 33 1004.5 - 4.0 - Partly cloudy 10 - - - -
24/10:00pm 16.9 WSW 21 31 1004.5 - 4.0 - Partly cloudy 10 - - - -
24/09:47pm 16.1 WSW 25 35 1004.7 - 4.0 - Partly cloudy 5 - - - -
24/09:40pm 16.3 WSW 27 35 1004.6 - 4.0 - Partly cloudy 6 - - - -
24/09:37pm 16.4 WSW 27 35 1004.5 - 4.0 - Partly cloudy 8 - - - -
24/09:31pm 16.5 WSW 26 39 1004.4 - 4.0 - Partly cloudy 9 - - - -
24/09:30pm 16.5 WSW 26 39 1004.4 - 4.0 - Partly cloudy 9 - - - -
24/09:25pm 16.8 SW 24 39 1004.3 - 4.0 - Partly cloudy 10 - - - -
24/09:07pm 16.9 WSW 24 35 1003.8 - 3.8 - Partly cloudy 6 - - - -
24/09:03pm 17.1 WSW 22 35 1003.6 - 3.8 - Partly cloudy 5 - - - -
24/09:00pm 17.1 WSW 23 32 1003.8 - 3.8 - Partly cloudy 3 - - - -
24/08:52pm 17.0 WSW 21 32 1004.1 - 3.0 - Partly cloudy 5 - - - -
24/08:47pm 18.3 WSW 18 28 1002.7 - 1.2 - Partly cloudy 10 - - - -
24/08:45pm 18.7 WSW 21 28 1002.9 - 1.2 - Partly cloudy 10 - - - -
24/08:43pm 20.5 W 16 26 1003.2 - 1.2 - Partly cloudy 10 - - - -
24/08:30pm 20.4 W 14 21 1002.8 - 1.2 - Mostly cloudy 10 - - - -
24/08:14pm 20.6 W 15 26 1003.4 - 1.2 - - 10 - - - -
24/08:00pm 20.3 W 13 19 1003.2 - 1.2 - - 10 - - - -
24/07:30pm 20.5 WNW 13 21 1003.2 - 1.2 - - 10 - - - -
24/07:00pm 20.4 W 12 21 1003.5 - 1.2 - Partly cloudy 10 - - - -
24/06:30pm 20.4 W 12 21 1003.6 - 1.2 - Partly cloudy 10 - - - -
24/06:00pm 20.3 WNW 11 18 1003.6 - 1.2 - Partly cloudy 10 - - - -
24/05:30pm 20.4 WNW 12 20 1003.6 - 1.2 - Mostly clear 10 - - - -
24/05:00pm 20.7 WNW 12 20 1003.6 - 1.2 - Partly cloudy 10 - - - -
24/04:30pm 20.8 WNW 10 20 1003.8 - 1.2 - - 10 - - - -
24/04:00pm 21.0 WNW 9 19 1004.0 - 1.2 - Partly cloudy 10 - - - -
24/03:30pm 21.0 NW 9 19 1004.1 - 1.2 - Partly cloudy 10 - - - -
24/03:00pm 21.2 NW 10 17 1004.0 - 1.2 - - 10 - - - -
24/02:30pm 21.4 WNW 12 17 1004.4 - 1.2 - Mostly clear 10 - - - -
24/02:00pm 21.3 WNW 8 15 1004.9 - 1.2 - Partly cloudy 10 - - - -
24/01:30pm 21.2 WNW 9 15 1005.2 - 1.2 - Partly cloudy 10 - - - -
24/01:00pm 21.3 W 12 20 1005.6 - 0.6 - Partly cloudy 10 - - - -
24/12:36pm 20.8 W 10 15 1006.0 - 0.4 - Partly cloudy 10 - - - -
24/12:30pm 20.0 W 11 13 1006.2 - 0.4 - Partly cloudy 8 - - - -
24/12:23pm 19.9 W 11 13 1006.3 - 0.4 - Partly cloudy 6 - - - -
24/12:00pm 21.2 W 11 14 1006.6 - 0.2 - Partly cloudy 10 - - - -
24/11:30am 21.7 W 12 18 1007.2 - 0.2 - Mostly cloudy 10 - - - -
24/11:00am 20.9 W 13 16 1008.0 - 0.0 - Partly cloudy 10 - - - -
24/10:30am 20.7 WSW 13 15 1008.7 - 0.0 - Partly cloudy 10 - - - -
24/10:00am 21.1 W 12 16 1008.9 - 0.0 - Partly cloudy 10 - - - -
24/09:30am 20.4 W 15 18 1009.1 - 0.0 - Partly cloudy 10 - - - -
24/09:00am 20.6 W 16 19 1009.2 - 0.0 - Partly cloudy 10 - - - -
24/08:30am 20.4 W 16 20 1009.1 - 2.2 - Mostly cloudy 10 - - - -
24/08:00am 19.7 W 17 23 1009.0 - 2.2 - Partly cloudy 10 - - - -
24/07:30am 19.6 W 17 22 1008.9 - 2.2 - Partly cloudy 10 - - - -
24/07:00am 19.6 W 15 19 1008.5 - 2.2 - Partly cloudy 10 - - - -
24/06:30am 19.4 W 12 19 1008.6 - 2.2 - Partly cloudy 10 - - - -
24/06:00am 19.3 W 13 18 1008.7 - 2.2 - Partly cloudy 10 - - - -
24/05:30am 19.1 W 16 22 1008.7 - 2.2 - Mostly cloudy 10 - - - -
24/05:20am 18.9 W 15 25 1008.6 - 2.2 - Partly cloudy 10 - - - -
24/05:00am 19.8 W 13 18 1008.5 - 2.2 - - 10 - - - -
24/04:30am 19.7 W 12 16 1008.3 - 2.2 - Partly cloudy 10 - - - -
24/04:00am 19.4 WNW 8 13 1008.5 - 2.2 - Partly cloudy 10 - - - -
24/03:30am 19.0 WNW 7 11 1008.6 - 2.2 - Partly cloudy 10 - - - -
24/03:00am 19.5 WNW 8 14 1009.0 - 2.2 - - 10 - - - -
24/02:30am 18.7 NNW 4 12 1009.3 - 2.2 - Cloudy 10 - - - -
24/02:00am 19.1 N 5 9 1009.4 - 2.2 - Partly cloudy 10 - - - -
24/01:30am 18.9 N 7 11 1009.7 - 2.2 - Partly cloudy 10 - - - -
24/01:00am 18.5 NNE 5 11 1010.2 - 2.2 - Partly cloudy 10 - - - -
24/12:30am 18.0 N 4 6 1010.6 - 2.2 - Partly cloudy 10 - - - -
24/12:00am 17.8 N 5 9 1011.2 - 2.2 - Cloudy 10 - - - -
 
Date/Time
EST
Temp
°C
Wind Pressure Rain since
9am
mm
Weather Cloud Vis
km
Sea
Height
m
Swell
Dir  Spd
kts
Gust
kts
hPa Trend Height
m
Period
s
Dir
23/11:30pm 16.2 NW 3 8 1011.7 - 2.2 - Cloudy 10 - - - -
23/11:00pm 17.5 NNW 6 13 1012.3 - 1.8 - Partly cloudy 10 - - - -
23/10:32pm 17.3 NNW 7 15 1012.3 - 1.8 - Partly cloudy 10 - - - -
23/10:30pm 17.3 NNW 8 17 1012.3 - 1.8 - Partly cloudy 10 - - - -
23/10:01pm 16.4 ENE 3 6 1012.1 - 1.6 - Partly cloudy 10 - - - -
23/10:00pm 16.5 ENE 3 6 1012.1 - 1.6 - Partly cloudy 10 - - - -
23/09:30pm 17.0 N 5 9 1012.7 - 0.8 - Partly cloudy 10 - - - -
23/09:00pm 17.6 NNE 10 26 1012.8 - 0.0 - Partly cloudy 10 - - - -
23/08:30pm 18.9 ENE 7 9 1012.5 - 0.0 - - 10 - - - -
23/08:00pm 18.7 NE 7 9 1012.7 - 0.0 - - 10 - - - -
23/07:30pm 18.8 NE 6 7 1013.0 - 0.0 - - 10 - - - -
23/07:00pm 18.3 NE 3 5 1012.7 - 0.0 - Partly cloudy 10 - - - -
23/06:30pm 18.3 N 7 13 1013.1 - 0.0 - Cloudy 10 - - - -
23/06:00pm 18.5 N 8 11 1012.9 - 0.0 - Partly cloudy 10 - - - -
23/05:30pm 18.9 NNE 5 8 1013.1 - 0.0 - Partly cloudy 10 - - - -
23/05:00pm 18.5 N 6 8 1012.9 - 0.0 - Partly cloudy 10 - - - -
23/04:30pm 18.8 N 6 9 1012.7 - 0.0 - Mostly clear 10 - - - -
23/04:00pm 19.1 N 6 8 1012.8 - 0.0 - Mostly clear 10 - - - -
23/03:30pm 18.7 N 2 6 1013.2 - 0.0 - Mostly clear 10 - - - -
23/03:00pm 19.1 NNW 3 5 1013.1 - 0.0 - Mostly clear 10 - - - -
23/02:30pm 19.5 NNW 4 5 1013.1 - 0.0 - Mostly clear 10 - - - -
23/02:00pm 21.0 NW 2 5 1013.1 - 0.0 - Mostly clear 10 - - - -
23/01:30pm 19.5 N 4 6 1012.9 - 0.0 - Mostly clear 10 - - - -
23/01:00pm 19.6 NNW 4 5 1013.2 - 0.0 - Mostly clear 10 - - - -
23/12:30pm 19.6 N 4 7 1013.7 - 0.0 - Mostly clear 10 - - - -
23/12:00pm 20.1 NW 3 5 1013.9 - 0.0 - Mostly clear 10 - - - -
23/11:30am 20.1 NW 4 7 1014.6 - 0.0 - Mostly clear 10 - - - -
23/11:00am 19.8 NNW 4 6 1014.7 - 0.0 - Mostly clear 10 - - - -
23/10:30am 20.2 W 3 4 1014.5 - 0.0 - Mostly clear 10 - - - -
23/10:00am 20.6 WNW 3 4 1014.4 - 0.0 - Mostly clear 10 - - - -
23/09:30am 20.3 W 4 6 1014.8 - 0.0 - Mostly clear 10 - - - -
23/09:00am 20.0 SW 4 5 1014.5 - 0.0 - Mostly clear 10 - - - -
23/08:30am 19.6 CALM 0 0 1014.4 - 4.8 - Mostly clear 10 - - - -
23/08:00am 17.4 CALM 0 0 1014.1 - 4.8 - Partly cloudy 10 - - - -
23/07:30am 17.1 CALM 0 0 1013.8 - 4.8 - Partly cloudy 10 - - - -
23/07:00am 16.8 CALM 0 0 1013.6 - 4.8 - Partly cloudy 10 - - - -
23/06:30am 17.2 SSW 1 4 1013.5 - 4.8 - Partly cloudy 10 - - - -
23/06:00am 18.5 SSW 5 9 1013.2 - 4.8 - - 10 - - - -
23/05:30am 18.7 SW 8 11 1012.8 - 4.8 - - 10 - - - -
23/05:00am 18.7 SW 9 12 1012.6 - 4.8 - - 10 - - - -
23/04:30am 18.5 SW 7 11 1012.1 - 4.8 - - 10 - - - -
23/04:00am 18.3 SW 8 13 1011.6 - 4.8 - - 10 - - - -
23/03:30am 18.9 SW 11 15 1011.7 - 4.8 - - 10 - - - -
23/03:00am 18.8 SW 10 14 1011.6 - 4.8 - - 10 - - - -
23/02:30am 19.0 WSW 11 16 1012.0 - 4.8 - Mostly clear 10 - - - -
23/02:00am 19.0 SW 11 17 1011.4 - 4.8 - - 10 - - - -
23/01:30am 19.0 SW 11 17 1011.2 - 4.8 - - 10 - - - -

Other Formats:

Comma delimited format used in spreadsheet applications
http://www.bom.gov.au/fwo/IDN60701/IDN60701.94995.axf

JavaScript Object Notation format (JSON) in row-major order
http://www.bom.gov.au/fwo/IDN60701/IDN60701.94995.json